sensor_id;sensor_type;location;lat;lon;timestamp;P1;durP1;ratioP1;P2;durP2;ratioP2
14740;SDS011;7462;53.530;9.414;2022-08-21T00:00:29;4.03;;;2.00;;
14740;SDS011;7462;53.530;9.414;2022-08-21T00:02:59;5.07;;;2.20;;
14740;SDS011;7462;53.530;9.414;2022-08-21T00:05:29;4.70;;;2.07;;
14740;SDS011;7462;53.530;9.414;2022-08-21T00:08:00;4.37;;;2.20;;
14740;SDS011;7462;53.530;9.414;2022-08-21T00:10:29;5.97;;;2.00;;
14740;SDS011;7462;53.530;9.414;2022-08-21T00:12:59;3.77;;;1.93;;
14740;SDS011;7462;53.530;9.414;2022-08-21T00:15:29;2.73;;;1.80;;
14740;SDS011;7462;53.530;9.414;2022-08-21T00:17:59;5.00;;;2.13;;
14740;SDS011;7462;53.530;9.414;2022-08-21T00:20:27;3.47;;;2.03;;
14740;SDS011;7462;53.530;9.414;2022-08-21T00:22:56;8.20;;;2.57;;
14740;SDS011;7462;53.530;9.414;2022-08-21T00:25:26;3.97;;;2.27;;
14740;SDS011;7462;53.530;9.414;2022-08-21T00:27:54;3.57;;;2.20;;
14740;SDS011;7462;53.530;9.414;2022-08-21T00:30:24;8.00;;;2.80;;
14740;SDS011;7462;53.530;9.414;2022-08-21T00:32:55;5.10;;;2.90;;
14740;SDS011;7462;53.530;9.414;2022-08-21T00:35:25;4.93;;;3.20;;
14740;SDS011;7462;53.530;9.414;2022-08-21T00:37:55;4.67;;;3.27;;
14740;SDS011;7462;53.530;9.414;2022-08-21T00:40:24;4.23;;;3.10;;
14740;SDS011;7462;53.530;9.414;2022-08-21T00:42:55;4.97;;;2.90;;
14740;SDS011;7462;53.530;9.414;2022-08-21T00:45:24;4.47;;;2.80;;
14740;SDS011;7462;53.530;9.414;2022-08-21T00:47:54;6.30;;;2.90;;
14740;SDS011;7462;53.530;9.414;2022-08-21T00:50:22;5.07;;;2.97;;
14740;SDS011;7462;53.530;9.414;2022-08-21T00:52:55;4.83;;;2.80;;
14740;SDS011;7462;53.530;9.414;2022-08-21T00:55:26;3.80;;;2.97;;
14740;SDS011;7462;53.530;9.414;2022-08-21T00:57:58;6.53;;;2.90;;
14740;SDS011;7462;53.530;9.414;2022-08-21T01:00:29;4.27;;;3.00;;
14740;SDS011;7462;53.530;9.414;2022-08-21T01:03:00;3.63;;;2.70;;
14740;SDS011;7462;53.530;9.414;2022-08-21T01:05:34;4.23;;;2.47;;
14740;SDS011;7462;53.530;9.414;2022-08-21T01:08:03;3.90;;;2.40;;
14740;SDS011;7462;53.530;9.414;2022-08-21T01:10:33;5.00;;;2.93;;
14740;SDS011;7462;53.530;9.414;2022-08-21T01:13:03;4.43;;;2.40;;
14740;SDS011;7462;53.530;9.414;2022-08-21T01:15:34;3.00;;;2.57;;
14740;SDS011;7462;53.530;9.414;2022-08-21T01:18:05;3.73;;;2.73;;
14740;SDS011;7462;53.530;9.414;2022-08-21T01:20:37;5.07;;;2.80;;
14740;SDS011;7462;53.530;9.414;2022-08-21T01:23:12;6.43;;;3.00;;
14740;SDS011;7462;53.530;9.414;2022-08-21T01:25:41;4.83;;;3.00;;
14740;SDS011;7462;53.530;9.414;2022-08-21T01:28:11;4.33;;;2.50;;
14740;SDS011;7462;53.530;9.414;2022-08-21T01:30:41;5.70;;;2.63;;
14740;SDS011;7462;53.530;9.414;2022-08-21T01:33:10;5.57;;;3.00;;
14740;SDS011;7462;53.530;9.414;2022-08-21T01:35:38;3.60;;;2.77;;
14740;SDS011;7462;53.530;9.414;2022-08-21T01:38:06;3.43;;;2.60;;
14740;SDS011;7462;53.530;9.414;2022-08-21T01:40:36;5.07;;;2.97;;
14740;SDS011;7462;53.530;9.414;2022-08-21T01:43:05;4.90;;;2.70;;
14740;SDS011;7462;53.530;9.414;2022-08-21T01:45:33;5.00;;;2.90;;
14740;SDS011;7462;53.530;9.414;2022-08-21T01:48:01;6.20;;;2.90;;
14740;SDS011;7462;53.530;9.414;2022-08-21T01:50:30;4.23;;;2.73;;
14740;SDS011;7462;53.530;9.414;2022-08-21T01:52:58;4.90;;;3.00;;
14740;SDS011;7462;53.530;9.414;2022-08-21T01:55:26;4.63;;;2.90;;
14740;SDS011;7462;53.530;9.414;2022-08-21T01:57:56;5.50;;;2.80;;
14740;SDS011;7462;53.530;9.414;2022-08-21T02:00:26;6.63;;;2.70;;
14740;SDS011;7462;53.530;9.414;2022-08-21T02:02:54;4.90;;;2.53;;
14740;SDS011;7462;53.530;9.414;2022-08-21T02:05:22;7.27;;;2.90;;
14740;SDS011;7462;53.530;9.414;2022-08-21T02:07:54;5.93;;;3.00;;
14740;SDS011;7462;53.530;9.414;2022-08-21T02:10:23;8.10;;;3.37;;
14740;SDS011;7462;53.530;9.414;2022-08-21T02:12:53;6.23;;;2.97;;
14740;SDS011;7462;53.530;9.414;2022-08-21T02:15:23;5.67;;;2.70;;
14740;SDS011;7462;53.530;9.414;2022-08-21T02:17:52;4.20;;;2.57;;
14740;SDS011;7462;53.530;9.414;2022-08-21T02:20:23;5.07;;;2.73;;
14740;SDS011;7462;53.530;9.414;2022-08-21T02:22:53;4.80;;;3.13;;
14740;SDS011;7462;53.530;9.414;2022-08-21T02:25:22;3.60;;;2.87;;
14740;SDS011;7462;53.530;9.414;2022-08-21T02:27:52;3.47;;;2.77;;
14740;SDS011;7462;53.530;9.414;2022-08-21T02:30:22;3.23;;;2.90;;
14740;SDS011;7462;53.530;9.414;2022-08-21T02:32:54;6.30;;;3.10;;
14740;SDS011;7462;53.530;9.414;2022-08-21T02:35:22;3.87;;;2.67;;
14740;SDS011;7462;53.530;9.414;2022-08-21T02:37:52;4.43;;;2.90;;
14740;SDS011;7462;53.530;9.414;2022-08-21T02:40:22;5.50;;;3.10;;
14740;SDS011;7462;53.530;9.414;2022-08-21T02:42:53;3.77;;;3.00;;
14740;SDS011;7462;53.530;9.414;2022-08-21T02:45:21;6.30;;;2.67;;
14740;SDS011;7462;53.530;9.414;2022-08-21T02:47:51;5.63;;;3.00;;
14740;SDS011;7462;53.530;9.414;2022-08-21T02:50:22;6.33;;;3.10;;
14740;SDS011;7462;53.530;9.414;2022-08-21T02:52:52;5.43;;;3.30;;
14740;SDS011;7462;53.530;9.414;2022-08-21T02:55:21;5.00;;;3.00;;
14740;SDS011;7462;53.530;9.414;2022-08-21T02:57:51;4.87;;;2.70;;
14740;SDS011;7462;53.530;9.414;2022-08-21T03:00:21;6.00;;;2.87;;
14740;SDS011;7462;53.530;9.414;2022-08-21T03:02:52;4.03;;;3.10;;
14740;SDS011;7462;53.530;9.414;2022-08-21T03:05:22;5.20;;;3.20;;
14740;SDS011;7462;53.530;9.414;2022-08-21T03:07:51;5.40;;;2.97;;
14740;SDS011;7462;53.530;9.414;2022-08-21T03:10:19;4.50;;;2.67;;
14740;SDS011;7462;53.530;9.414;2022-08-21T03:12:48;3.33;;;2.60;;
14740;SDS011;7462;53.530;9.414;2022-08-21T03:15:17;5.03;;;3.10;;
14740;SDS011;7462;53.530;9.414;2022-08-21T03:17:48;3.63;;;2.60;;
14740;SDS011;7462;53.530;9.414;2022-08-21T03:20:20;4.13;;;2.87;;
14740;SDS011;7462;53.530;9.414;2022-08-21T03:22:50;6.10;;;3.10;;
14740;SDS011;7462;53.530;9.414;2022-08-21T03:25:18;4.17;;;3.00;;
14740;SDS011;7462;53.530;9.414;2022-08-21T03:28:08;4.87;;;2.50;;
14740;SDS011;7462;53.530;9.414;2022-08-21T03:30:39;3.63;;;2.53;;
14740;SDS011;7462;53.530;9.414;2022-08-21T03:33:07;3.70;;;2.80;;
14740;SDS011;7462;53.530;9.414;2022-08-21T03:35:42;4.93;;;2.80;;
14740;SDS011;7462;53.530;9.414;2022-08-21T03:38:12;4.07;;;2.70;;
14740;SDS011;7462;53.530;9.414;2022-08-21T03:40:40;4.20;;;2.57;;
14740;SDS011;7462;53.530;9.414;2022-08-21T03:43:09;3.93;;;2.50;;
14740;SDS011;7462;53.530;9.414;2022-08-21T03:45:38;4.50;;;3.30;;
14740;SDS011;7462;53.530;9.414;2022-08-21T03:48:07;5.63;;;2.80;;
14740;SDS011;7462;53.530;9.414;2022-08-21T03:50:36;4.20;;;2.60;;
14740;SDS011;7462;53.530;9.414;2022-08-21T03:53:11;4.77;;;3.00;;
14740;SDS011;7462;53.530;9.414;2022-08-21T03:55:42;4.30;;;2.70;;
14740;SDS011;7462;53.530;9.414;2022-08-21T03:58:12;5.67;;;2.77;;
14740;SDS011;7462;53.530;9.414;2022-08-21T04:00:42;4.10;;;2.30;;
14740;SDS011;7462;53.530;9.414;2022-08-21T04:03:10;3.97;;;2.93;;
14740;SDS011;7462;53.530;9.414;2022-08-21T04:05:38;3.93;;;2.77;;
14740;SDS011;7462;53.530;9.414;2022-08-21T04:08:07;4.53;;;2.70;;
14740;SDS011;7462;53.530;9.414;2022-08-21T04:10:37;5.07;;;3.10;;
14740;SDS011;7462;53.530;9.414;2022-08-21T04:13:07;3.70;;;2.87;;
14740;SDS011;7462;53.530;9.414;2022-08-21T04:15:35;4.63;;;3.00;;
14740;SDS011;7462;53.530;9.414;2022-08-21T04:18:04;5.30;;;2.90;;
14740;SDS011;7462;53.530;9.414;2022-08-21T04:20:32;5.00;;;3.10;;
14740;SDS011;7462;53.530;9.414;2022-08-21T04:23:00;4.53;;;3.20;;
14740;SDS011;7462;53.530;9.414;2022-08-21T04:25:29;5.30;;;2.90;;
14740;SDS011;7462;53.530;9.414;2022-08-21T04:27:59;6.93;;;3.00;;
14740;SDS011;7462;53.530;9.414;2022-08-21T04:30:28;4.93;;;3.20;;
14740;SDS011;7462;53.530;9.414;2022-08-21T04:32:57;4.57;;;2.90;;
14740;SDS011;7462;53.530;9.414;2022-08-21T04:35:26;3.57;;;2.57;;
14740;SDS011;7462;53.530;9.414;2022-08-21T04:37:55;4.90;;;2.63;;
14740;SDS011;7462;53.530;9.414;2022-08-21T04:40:24;4.07;;;2.80;;
14740;SDS011;7462;53.530;9.414;2022-08-21T04:42:55;4.47;;;3.13;;
14740;SDS011;7462;53.530;9.414;2022-08-21T04:45:28;4.40;;;2.63;;
14740;SDS011;7462;53.530;9.414;2022-08-21T04:47:58;4.47;;;3.20;;
14740;SDS011;7462;53.530;9.414;2022-08-21T04:50:29;9.57;;;2.80;;
14740;SDS011;7462;53.530;9.414;2022-08-21T04:53:05;5.00;;;2.90;;
14740;SDS011;7462;53.530;9.414;2022-08-21T04:55:36;5.13;;;2.87;;
14740;SDS011;7462;53.530;9.414;2022-08-21T04:58:04;4.23;;;2.87;;
14740;SDS011;7462;53.530;9.414;2022-08-21T05:00:35;7.00;;;3.30;;
14740;SDS011;7462;53.530;9.414;2022-08-21T05:03:04;6.67;;;3.03;;
14740;SDS011;7462;53.530;9.414;2022-08-21T05:05:35;6.40;;;3.60;;
14740;SDS011;7462;53.530;9.414;2022-08-21T05:08:03;3.70;;;2.87;;
14740;SDS011;7462;53.530;9.414;2022-08-21T05:10:31;5.17;;;3.10;;
14740;SDS011;7462;53.530;9.414;2022-08-21T05:12:59;6.63;;;3.00;;
14740;SDS011;7462;53.530;9.414;2022-08-21T05:15:28;4.27;;;2.80;;
14740;SDS011;7462;53.530;9.414;2022-08-21T05:17:58;4.80;;;2.73;;
14740;SDS011;7462;53.530;9.414;2022-08-21T05:20:27;5.57;;;2.80;;
14740;SDS011;7462;53.530;9.414;2022-08-21T05:22:55;6.67;;;3.57;;
14740;SDS011;7462;53.530;9.414;2022-08-21T05:25:24;5.50;;;3.10;;
14740;SDS011;7462;53.530;9.414;2022-08-21T05:27:53;4.93;;;2.80;;
14740;SDS011;7462;53.530;9.414;2022-08-21T05:30:25;4.83;;;3.40;;
14740;SDS011;7462;53.530;9.414;2022-08-21T05:32:55;5.97;;;3.13;;
14740;SDS011;7462;53.530;9.414;2022-08-21T05:35:27;4.03;;;2.53;;
14740;SDS011;7462;53.530;9.414;2022-08-21T05:37:56;3.10;;;2.47;;
14740;SDS011;7462;53.530;9.414;2022-08-21T05:40:24;4.67;;;2.70;;
14740;SDS011;7462;53.530;9.414;2022-08-21T05:42:53;5.00;;;2.50;;
14740;SDS011;7462;53.530;9.414;2022-08-21T05:45:22;3.90;;;2.40;;
14740;SDS011;7462;53.530;9.414;2022-08-21T05:48:09;3.33;;;2.50;;
14740;SDS011;7462;53.530;9.414;2022-08-21T05:50:40;4.40;;;2.20;;
14740;SDS011;7462;53.530;9.414;2022-08-21T05:53:09;4.87;;;2.90;;
14740;SDS011;7462;53.530;9.414;2022-08-21T05:55:38;5.80;;;2.50;;
14740;SDS011;7462;53.530;9.414;2022-08-21T05:58:11;3.90;;;2.30;;
14740;SDS011;7462;53.530;9.414;2022-08-21T06:00:40;4.03;;;2.23;;
14740;SDS011;7462;53.530;9.414;2022-08-21T06:03:13;3.33;;;2.10;;
14740;SDS011;7462;53.530;9.414;2022-08-21T06:05:44;2.87;;;2.00;;
14740;SDS011;7462;53.530;9.414;2022-08-21T06:08:13;4.63;;;2.30;;
14740;SDS011;7462;53.530;9.414;2022-08-21T06:10:42;4.90;;;2.67;;
14740;SDS011;7462;53.530;9.414;2022-08-21T06:13:11;4.50;;;2.63;;
14740;SDS011;7462;53.530;9.414;2022-08-21T06:15:39;6.27;;;2.57;;
14740;SDS011;7462;53.530;9.414;2022-08-21T06:18:08;5.50;;;2.73;;
14740;SDS011;7462;53.530;9.414;2022-08-21T06:20:36;3.63;;;2.30;;
14740;SDS011;7462;53.530;9.414;2022-08-21T06:23:06;3.80;;;2.20;;
14740;SDS011;7462;53.530;9.414;2022-08-21T06:25:35;4.67;;;2.70;;
14740;SDS011;7462;53.530;9.414;2022-08-21T06:28:04;4.10;;;2.40;;
14740;SDS011;7462;53.530;9.414;2022-08-21T06:30:33;4.83;;;2.00;;
14740;SDS011;7462;53.530;9.414;2022-08-21T06:33:03;4.47;;;2.57;;
14740;SDS011;7462;53.530;9.414;2022-08-21T06:35:32;4.90;;;2.27;;
14740;SDS011;7462;53.530;9.414;2022-08-21T06:38:00;4.07;;;2.00;;
14740;SDS011;7462;53.530;9.414;2022-08-21T06:40:30;5.17;;;2.13;;
14740;SDS011;7462;53.530;9.414;2022-08-21T06:43:05;4.47;;;2.10;;
14740;SDS011;7462;53.530;9.414;2022-08-21T06:45:34;6.53;;;2.20;;
14740;SDS011;7462;53.530;9.414;2022-08-21T06:48:02;4.37;;;2.10;;
14740;SDS011;7462;53.530;9.414;2022-08-21T06:50:30;3.13;;;2.00;;
14740;SDS011;7462;53.530;9.414;2022-08-21T06:52:59;3.03;;;1.63;;
14740;SDS011;7462;53.530;9.414;2022-08-21T06:55:28;3.93;;;1.73;;
14740;SDS011;7462;53.530;9.414;2022-08-21T06:57:58;4.47;;;2.20;;
14740;SDS011;7462;53.530;9.414;2022-08-21T07:00:26;6.17;;;2.03;;
14740;SDS011;7462;53.530;9.414;2022-08-21T07:02:55;4.97;;;2.40;;
14740;SDS011;7462;53.530;9.414;2022-08-21T07:05:24;7.50;;;2.50;;
14740;SDS011;7462;53.530;9.414;2022-08-21T07:07:53;2.63;;;1.70;;
14740;SDS011;7462;53.530;9.414;2022-08-21T07:10:21;5.23;;;2.00;;
14740;SDS011;7462;53.530;9.414;2022-08-21T07:12:51;4.13;;;1.63;;
14740;SDS011;7462;53.530;9.414;2022-08-21T07:15:27;3.93;;;1.83;;
14740;SDS011;7462;53.530;9.414;2022-08-21T07:17:56;3.10;;;1.77;;
14740;SDS011;7462;53.530;9.414;2022-08-21T07:20:25;4.20;;;2.10;;
14740;SDS011;7462;53.530;9.414;2022-08-21T07:22:54;4.03;;;1.70;;
14740;SDS011;7462;53.530;9.414;2022-08-21T07:25:23;4.23;;;1.70;;
14740;SDS011;7462;53.530;9.414;2022-08-21T07:27:52;4.20;;;1.93;;
14740;SDS011;7462;53.530;9.414;2022-08-21T07:30:21;5.70;;;2.00;;
14740;SDS011;7462;53.530;9.414;2022-08-21T07:32:50;5.37;;;2.20;;
14740;SDS011;7462;53.530;9.414;2022-08-21T07:35:19;4.90;;;2.10;;
14740;SDS011;7462;53.530;9.414;2022-08-21T07:37:48;7.37;;;2.27;;
14740;SDS011;7462;53.530;9.414;2022-08-21T07:40:17;6.50;;;2.13;;
14740;SDS011;7462;53.530;9.414;2022-08-21T07:42:45;4.63;;;2.00;;
14740;SDS011;7462;53.530;9.414;2022-08-21T07:45:18;4.17;;;1.90;;
14740;SDS011;7462;53.530;9.414;2022-08-21T07:47:47;5.63;;;2.27;;
14740;SDS011;7462;53.530;9.414;2022-08-21T07:50:22;6.17;;;2.13;;
14740;SDS011;7462;53.530;9.414;2022-08-21T07:52:50;7.23;;;2.23;;
14740;SDS011;7462;53.530;9.414;2022-08-21T07:55:19;5.30;;;2.13;;
14740;SDS011;7462;53.530;9.414;2022-08-21T07:57:48;6.00;;;2.13;;
14740;SDS011;7462;53.530;9.414;2022-08-21T08:00:18;4.90;;;2.27;;
14740;SDS011;7462;53.530;9.414;2022-08-21T08:02:51;8.03;;;1.90;;
14740;SDS011;7462;53.530;9.414;2022-08-21T08:05:22;6.33;;;2.27;;
14740;SDS011;7462;53.530;9.414;2022-08-21T08:07:51;4.70;;;1.57;;
14740;SDS011;7462;53.530;9.414;2022-08-21T08:10:20;7.47;;;2.30;;
14740;SDS011;7462;53.530;9.414;2022-08-21T08:12:49;4.30;;;1.70;;
14740;SDS011;7462;53.530;9.414;2022-08-21T08:15:20;6.53;;;1.90;;
14740;SDS011;7462;53.530;9.414;2022-08-21T08:17:50;6.80;;;2.13;;
14740;SDS011;7462;53.530;9.414;2022-08-21T08:20:19;7.43;;;2.00;;
14740;SDS011;7462;53.530;9.414;2022-08-21T08:22:48;9.13;;;2.10;;
14740;SDS011;7462;53.530;9.414;2022-08-21T08:25:17;3.93;;;2.00;;
14740;SDS011;7462;53.530;9.414;2022-08-21T08:27:46;6.40;;;1.90;;
14740;SDS011;7462;53.530;9.414;2022-08-21T08:30:15;6.20;;;2.37;;
14740;SDS011;7462;53.530;9.414;2022-08-21T08:32:46;5.50;;;1.90;;
14740;SDS011;7462;53.530;9.414;2022-08-21T08:35:15;5.33;;;2.20;;
14740;SDS011;7462;53.530;9.414;2022-08-21T08:37:48;5.47;;;1.80;;
14740;SDS011;7462;53.530;9.414;2022-08-21T08:40:25;6.07;;;1.90;;
14740;SDS011;7462;53.530;9.414;2022-08-21T08:43:04;5.50;;;1.70;;
14740;SDS011;7462;53.530;9.414;2022-08-21T08:45:34;9.20;;;2.47;;
14740;SDS011;7462;53.530;9.414;2022-08-21T08:48:09;4.93;;;1.83;;
14740;SDS011;7462;53.530;9.414;2022-08-21T08:50:41;6.23;;;2.00;;
14740;SDS011;7462;53.530;9.414;2022-08-21T08:53:14;4.73;;;1.80;;
14740;SDS011;7462;53.530;9.414;2022-08-21T08:55:46;5.40;;;1.90;;
14740;SDS011;7462;53.530;9.414;2022-08-21T08:58:16;8.03;;;2.27;;
14740;SDS011;7462;53.530;9.414;2022-08-21T09:00:50;8.00;;;2.23;;
14740;SDS011;7462;53.530;9.414;2022-08-21T09:03:21;5.60;;;2.17;;
14740;SDS011;7462;53.530;9.414;2022-08-21T09:05:53;7.50;;;2.37;;
14740;SDS011;7462;53.530;9.414;2022-08-21T09:08:31;8.70;;;2.17;;
14740;SDS011;7462;53.530;9.414;2022-08-21T09:11:09;6.50;;;2.50;;
14740;SDS011;7462;53.530;9.414;2022-08-21T09:13:45;5.70;;;2.07;;
14740;SDS011;7462;53.530;9.414;2022-08-21T09:16:21;6.37;;;2.10;;
14740;SDS011;7462;53.530;9.414;2022-08-21T09:19:02;8.00;;;2.33;;
14740;SDS011;7462;53.530;9.414;2022-08-21T09:21:37;5.57;;;1.90;;
14740;SDS011;7462;53.530;9.414;2022-08-21T09:24:22;3.73;;;1.80;;
14740;SDS011;7462;53.530;9.414;2022-08-21T09:27:00;7.10;;;2.30;;
14740;SDS011;7462;53.530;9.414;2022-08-21T09:29:35;7.30;;;2.17;;
14740;SDS011;7462;53.530;9.414;2022-08-21T09:32:08;5.07;;;1.70;;
14740;SDS011;7462;53.530;9.414;2022-08-21T09:34:56;9.07;;;2.10;;
14740;SDS011;7462;53.530;9.414;2022-08-21T09:37:26;6.37;;;1.80;;
14740;SDS011;7462;53.530;9.414;2022-08-21T09:39:56;4.03;;;1.80;;
14740;SDS011;7462;53.530;9.414;2022-08-21T09:42:26;3.83;;;1.57;;
14740;SDS011;7462;53.530;9.414;2022-08-21T09:45:06;5.53;;;1.90;;
14740;SDS011;7462;53.530;9.414;2022-08-21T09:47:38;4.20;;;1.73;;
14740;SDS011;7462;53.530;9.414;2022-08-21T09:50:10;4.43;;;1.93;;
14740;SDS011;7462;53.530;9.414;2022-08-21T09:52:45;4.80;;;1.70;;
14740;SDS011;7462;53.530;9.414;2022-08-21T09:55:24;4.90;;;1.93;;
14740;SDS011;7462;53.530;9.414;2022-08-21T09:58:17;4.27;;;1.60;;
14740;SDS011;7462;53.530;9.414;2022-08-21T10:00:47;5.50;;;1.70;;
14740;SDS011;7462;53.530;9.414;2022-08-21T10:03:26;5.57;;;1.90;;
14740;SDS011;7462;53.530;9.414;2022-08-21T10:05:57;5.70;;;1.93;;
14740;SDS011;7462;53.530;9.414;2022-08-21T10:08:35;4.47;;;1.93;;
14740;SDS011;7462;53.530;9.414;2022-08-21T10:11:06;3.60;;;1.73;;
14740;SDS011;7462;53.530;9.414;2022-08-21T10:13:45;5.80;;;1.90;;
14740;SDS011;7462;53.530;9.414;2022-08-21T10:16:27;4.10;;;1.53;;
14740;SDS011;7462;53.530;9.414;2022-08-21T10:19:02;4.00;;;1.73;;
14740;SDS011;7462;53.530;9.414;2022-08-21T10:21:57;4.53;;;1.70;;
14740;SDS011;7462;53.530;9.414;2022-08-21T10:24:30;3.10;;;1.30;;
14740;SDS011;7462;53.530;9.414;2022-08-21T10:27:05;3.87;;;1.40;;
14740;SDS011;7462;53.530;9.414;2022-08-21T10:29:47;5.97;;;1.97;;
14740;SDS011;7462;53.530;9.414;2022-08-21T10:32:24;2.73;;;1.40;;
14740;SDS011;7462;53.530;9.414;2022-08-21T10:35:14;5.43;;;1.60;;
14740;SDS011;7462;53.530;9.414;2022-08-21T10:37:52;1.77;;;1.30;;
14740;SDS011;7462;53.530;9.414;2022-08-21T10:41:00;3.60;;;1.50;;
14740;SDS011;7462;53.530;9.414;2022-08-21T10:43:35;3.13;;;1.70;;
14740;SDS011;7462;53.530;9.414;2022-08-21T10:46:11;4.83;;;1.80;;
14740;SDS011;7462;53.530;9.414;2022-08-21T10:48:46;4.50;;;1.53;;
14740;SDS011;7462;53.530;9.414;2022-08-21T10:51:19;3.87;;;1.40;;
14740;SDS011;7462;53.530;9.414;2022-08-21T10:53:58;2.53;;;1.20;;
14740;SDS011;7462;53.530;9.414;2022-08-21T10:56:32;3.47;;;1.30;;
14740;SDS011;7462;53.530;9.414;2022-08-21T10:59:09;3.43;;;1.20;;
14740;SDS011;7462;53.530;9.414;2022-08-21T11:01:53;2.97;;;1.20;;
14740;SDS011;7462;53.530;9.414;2022-08-21T11:04:25;2.70;;;1.27;;
14740;SDS011;7462;53.530;9.414;2022-08-21T11:07:16;3.30;;;1.30;;
14740;SDS011;7462;53.530;9.414;2022-08-21T11:09:51;3.43;;;1.33;;
14740;SDS011;7462;53.530;9.414;2022-08-21T11:12:24;3.93;;;1.17;;
14740;SDS011;7462;53.530;9.414;2022-08-21T11:14:59;3.10;;;0.93;;
14740;SDS011;7462;53.530;9.414;2022-08-21T11:17:33;3.30;;;1.20;;
14740;SDS011;7462;53.530;9.414;2022-08-21T11:20:07;2.60;;;1.20;;
14740;SDS011;7462;53.530;9.414;2022-08-21T11:22:44;3.10;;;1.50;;
14740;SDS011;7462;53.530;9.414;2022-08-21T11:25:23;5.57;;;4.30;;
14740;SDS011;7462;53.530;9.414;2022-08-21T11:28:03;5.10;;;3.80;;
14740;SDS011;7462;53.530;9.414;2022-08-21T11:30:41;3.57;;;2.00;;
14740;SDS011;7462;53.530;9.414;2022-08-21T11:33:24;5.57;;;2.10;;
14740;SDS011;7462;53.530;9.414;2022-08-21T11:36:07;3.37;;;1.63;;
14740;SDS011;7462;53.530;9.414;2022-08-21T11:38:44;3.67;;;1.57;;
14740;SDS011;7462;53.530;9.414;2022-08-21T11:41:22;3.23;;;1.40;;
14740;SDS011;7462;53.530;9.414;2022-08-21T11:43:57;3.17;;;1.37;;
14740;SDS011;7462;53.530;9.414;2022-08-21T11:46:35;2.87;;;1.30;;
14740;SDS011;7462;53.530;9.414;2022-08-21T11:49:23;3.70;;;1.30;;
14740;SDS011;7462;53.530;9.414;2022-08-21T11:52:12;3.60;;;1.43;;
14740;SDS011;7462;53.530;9.414;2022-08-21T11:54:48;3.57;;;1.20;;
14740;SDS011;7462;53.530;9.414;2022-08-21T11:57:22;2.07;;;1.17;;
14740;SDS011;7462;53.530;9.414;2022-08-21T11:59:57;5.10;;;1.30;;
14740;SDS011;7462;53.530;9.414;2022-08-21T12:02:38;3.53;;;1.50;;
14740;SDS011;7462;53.530;9.414;2022-08-21T12:05:11;2.40;;;1.07;;
14740;SDS011;7462;53.530;9.414;2022-08-21T12:07:59;4.03;;;1.40;;
14740;SDS011;7462;53.530;9.414;2022-08-21T12:10:34;3.80;;;1.30;;
14740;SDS011;7462;53.530;9.414;2022-08-21T12:13:08;3.40;;;1.43;;
14740;SDS011;7462;53.530;9.414;2022-08-21T12:16:06;3.83;;;1.77;;
14740;SDS011;7462;53.530;9.414;2022-08-21T12:18:35;2.70;;;1.30;;
14740;SDS011;7462;53.530;9.414;2022-08-21T12:21:15;4.10;;;1.40;;
14740;SDS011;7462;53.530;9.414;2022-08-21T12:23:48;2.60;;;1.13;;
14740;SDS011;7462;53.530;9.414;2022-08-21T12:26:28;2.13;;;1.10;;
14740;SDS011;7462;53.530;9.414;2022-08-21T12:29:12;4.10;;;1.40;;
14740;SDS011;7462;53.530;9.414;2022-08-21T12:31:48;3.20;;;1.40;;
14740;SDS011;7462;53.530;9.414;2022-08-21T12:34:35;2.93;;;1.30;;
14740;SDS011;7462;53.530;9.414;2022-08-21T12:37:09;3.37;;;1.30;;
14740;SDS011;7462;53.530;9.414;2022-08-21T12:39:43;3.43;;;1.17;;
14740;SDS011;7462;53.530;9.414;2022-08-21T12:42:15;2.47;;;1.37;;
14740;SDS011;7462;53.530;9.414;2022-08-21T12:44:48;3.53;;;1.40;;
14740;SDS011;7462;53.530;9.414;2022-08-21T12:47:23;2.23;;;0.90;;
14740;SDS011;7462;53.530;9.414;2022-08-21T12:49:58;2.20;;;1.17;;
14740;SDS011;7462;53.530;9.414;2022-08-21T12:52:32;2.10;;;1.20;;
14740;SDS011;7462;53.530;9.414;2022-08-21T12:55:05;5.00;;;1.30;;
14740;SDS011;7462;53.530;9.414;2022-08-21T12:57:35;3.10;;;1.10;;
14740;SDS011;7462;53.530;9.414;2022-08-21T13:00:07;3.00;;;1.40;;
14740;SDS011;7462;53.530;9.414;2022-08-21T13:02:42;4.13;;;1.40;;
14740;SDS011;7462;53.530;9.414;2022-08-21T13:05:15;2.53;;;1.10;;
14740;SDS011;7462;53.530;9.414;2022-08-21T13:07:47;3.70;;;1.50;;
14740;SDS011;7462;53.530;9.414;2022-08-21T13:10:17;3.33;;;1.50;;
14740;SDS011;7462;53.530;9.414;2022-08-21T13:12:48;3.93;;;1.20;;
14740;SDS011;7462;53.530;9.414;2022-08-21T13:15:23;4.53;;;1.50;;
14740;SDS011;7462;53.530;9.414;2022-08-21T13:17:59;2.80;;;1.30;;
14740;SDS011;7462;53.530;9.414;2022-08-21T13:20:30;2.73;;;1.17;;
14740;SDS011;7462;53.530;9.414;2022-08-21T13:23:00;2.53;;;1.10;;
14740;SDS011;7462;53.530;9.414;2022-08-21T13:25:30;4.87;;;1.40;;
14740;SDS011;7462;53.530;9.414;2022-08-21T13:28:04;4.73;;;1.30;;
14740;SDS011;7462;53.530;9.414;2022-08-21T13:30:39;2.87;;;1.20;;
14740;SDS011;7462;53.530;9.414;2022-08-21T13:33:10;2.47;;;1.40;;
14740;SDS011;7462;53.530;9.414;2022-08-21T13:35:48;4.30;;;1.00;;
14740;SDS011;7462;53.530;9.414;2022-08-21T13:38:19;5.33;;;1.53;;
14740;SDS011;7462;53.530;9.414;2022-08-21T13:40:54;3.33;;;1.40;;
14740;SDS011;7462;53.530;9.414;2022-08-21T13:43:25;2.40;;;1.00;;
14740;SDS011;7462;53.530;9.414;2022-08-21T13:45:56;2.70;;;1.17;;
14740;SDS011;7462;53.530;9.414;2022-08-21T13:48:26;2.77;;;1.23;;
14740;SDS011;7462;53.530;9.414;2022-08-21T13:50:57;3.33;;;1.23;;
14740;SDS011;7462;53.530;9.414;2022-08-21T13:53:28;3.03;;;1.23;;
14740;SDS011;7462;53.530;9.414;2022-08-21T13:55:57;4.07;;;1.23;;
14740;SDS011;7462;53.530;9.414;2022-08-21T13:58:27;2.03;;;1.10;;
14740;SDS011;7462;53.530;9.414;2022-08-21T14:01:00;3.50;;;1.13;;
14740;SDS011;7462;53.530;9.414;2022-08-21T14:03:33;2.73;;;1.17;;
14740;SDS011;7462;53.530;9.414;2022-08-21T14:06:13;1.50;;;1.10;;
14740;SDS011;7462;53.530;9.414;2022-08-21T14:08:46;2.23;;;1.07;;
14740;SDS011;7462;53.530;9.414;2022-08-21T14:11:17;3.70;;;1.10;;
14740;SDS011;7462;53.530;9.414;2022-08-21T14:13:46;2.70;;;1.20;;
14740;SDS011;7462;53.530;9.414;2022-08-21T14:16:19;2.53;;;1.23;;
14740;SDS011;7462;53.530;9.414;2022-08-21T14:18:49;5.13;;;1.47;;
14740;SDS011;7462;53.530;9.414;2022-08-21T14:21:35;2.90;;;1.07;;
14740;SDS011;7462;53.530;9.414;2022-08-21T14:24:06;4.33;;;1.17;;
14740;SDS011;7462;53.530;9.414;2022-08-21T14:26:41;3.30;;;1.17;;
14740;SDS011;7462;53.530;9.414;2022-08-21T14:29:13;3.20;;;1.20;;
14740;SDS011;7462;53.530;9.414;2022-08-21T14:31:48;4.73;;;1.20;;
14740;SDS011;7462;53.530;9.414;2022-08-21T14:34:17;2.20;;;1.03;;
14740;SDS011;7462;53.530;9.414;2022-08-21T14:36:46;3.60;;;1.30;;
14740;SDS011;7462;53.530;9.414;2022-08-21T14:39:14;1.67;;;0.93;;
14740;SDS011;7462;53.530;9.414;2022-08-21T14:41:43;2.83;;;1.20;;
14740;SDS011;7462;53.530;9.414;2022-08-21T14:44:15;3.97;;;1.20;;
14740;SDS011;7462;53.530;9.414;2022-08-21T14:46:45;3.13;;;1.10;;
14740;SDS011;7462;53.530;9.414;2022-08-21T14:49:23;2.37;;;1.10;;
14740;SDS011;7462;53.530;9.414;2022-08-21T14:51:53;4.63;;;1.30;;
14740;SDS011;7462;53.530;9.414;2022-08-21T14:54:23;4.33;;;1.10;;
14740;SDS011;7462;53.530;9.414;2022-08-21T14:56:57;5.37;;;1.23;;
14740;SDS011;7462;53.530;9.414;2022-08-21T14:59:27;4.23;;;1.20;;
14740;SDS011;7462;53.530;9.414;2022-08-21T15:01:58;2.97;;;1.37;;
14740;SDS011;7462;53.530;9.414;2022-08-21T15:04:26;5.43;;;1.43;;
14740;SDS011;7462;53.530;9.414;2022-08-21T15:06:54;3.23;;;1.50;;
14740;SDS011;7462;53.530;9.414;2022-08-21T15:09:22;4.10;;;1.10;;
14740;SDS011;7462;53.530;9.414;2022-08-21T15:11:51;4.57;;;1.38;;
14740;SDS011;7462;53.530;9.414;2022-08-21T15:14:22;2.63;;;1.20;;
14740;SDS011;7462;53.530;9.414;2022-08-21T15:16:56;4.17;;;1.40;;
14740;SDS011;7462;53.530;9.414;2022-08-21T15:19:25;5.43;;;1.30;;
14740;SDS011;7462;53.530;9.414;2022-08-21T15:21:55;6.17;;;1.37;;
14740;SDS011;7462;53.530;9.414;2022-08-21T15:24:23;6.97;;;1.43;;
14740;SDS011;7462;53.530;9.414;2022-08-21T15:26:52;2.63;;;0.97;;
14740;SDS011;7462;53.530;9.414;2022-08-21T15:29:21;4.97;;;1.40;;